Latest Weather Observations for Cloncurry

IDQ60801

Issued at 10:02 am EST Sunday 1 February 2015 (issued every 30 minutes, with the page automatically refreshed every 10 minutes)

About weather observations | Map of weather stations | Latest weather observations for QLD | Other Formats
Station Details ID: 029141 Name: CLONCURRY AIRPORT Lat: -20.67 Lon: 140.50 Height: 186.0 m
Data from the previous 72 hours. | See also: Recent months at Cloncurry
Date/Time
EST
Temp
°C
App
Temp
°C
Dew
Point
Rel
Hum
%
Delta-T
°C
Wind Press
QNH
hPa
Press
MSL
hPa
Rain
since 9 am
mm
Dir
 
Spd
km/h
Gust
km/h
Spd
kts
Gust
kts
01/10:00am 35.1 29.4 2.6 13 16.9 ESE 22 28 12 15 1008.6 1007.2 0.0
01/09:30am 34.1 29.5 3.8 15 16.0 SE 17 26 9 14 1008.7 1007.2 0.0
01/09:00am 32.1 27.9 4.0 17 14.7 SSE 15 20 8 11 1008.7 1007.2 0.0
01/08:30am 30.7 26.8 5.2 20 13.5 S 15 19 8 10 1008.6 1007.1 0.0
01/08:00am 28.7 25.1 4.9 22 12.4 S 13 15 7 8 1008.3 1006.8 0.0
01/07:30am 26.8 23.9 4.6 24 11.4 S 9 11 5 6 1008.2 1006.7 0.0
01/07:00am 25.5 21.9 2.9 23 11.1 S 11 13 6 7 1008.2 1006.7 0.0
01/06:30am 24.5 20.7 2.0 23 10.8 S 11 11 6 6 1007.8 1006.4 0.0
01/06:00am 25.1 21.6 1.3 21 11.4 S 9 11 5 6 1007.3 1005.9 0.0
01/05:30am 25.5 22.1 1.6 21 11.5 S 9 11 5 6 1007.0 1005.6 0.0
01/05:00am 26.3 23.3 2.3 21 11.8 S 7 9 4 5 1006.8 1005.4 0.0
01/04:30am 25.4 21.1 0.8 20 11.6 S 13 13 7 7 1006.6 1005.2 0.0
01/04:00am 25.6 22.4 1.0 20 11.7 S 7 13 4 7 1006.5 1005.1 0.0
01/03:30am 26.5 22.2 1.0 19 12.2 S 13 15 7 8 1006.1 1004.7 0.0
01/03:00am 27.4 23.1 1.0 18 12.7 S 13 15 7 8 1006.1 1004.7 0.0
01/02:30am 27.9 23.3 1.4 18 12.9 S 15 17 8 9 1006.2 1004.8 0.0
01/02:00am 27.9 23.7 1.4 18 12.9 SSE 13 17 7 9 1006.2 1004.8 0.0
01/01:30am 28.5 23.8 1.1 17 13.4 SSE 15 17 8 9 1006.4 1005.0 0.0
01/01:00am 30.6 25.8 2.8 17 14.1 SSE 17 20 9 11 1006.8 1005.4 0.0
01/12:30am 30.8 26.1 2.9 17 14.2 S 17 20 9 11 1006.9 1005.5 0.0
01/12:00am 32.2 27.3 4.9 18 14.5 S 20 28 11 15 1006.9 1005.5 0.0
 
Date/Time
EST
Temp
°C
App
Temp
°C
Dew
Point
Rel
Hum
%
Delta-T
°C
Wind Press
QNH
hPa
Press
MSL
hPa
Rain
since 9 am
mm
Dir
 
Spd
km/h
Gust
km/h
Spd
kts
Gust
kts
31/11:30pm 31.3 27.3 4.9 19 13.9 S 15 19 8 10 1007.0 1005.6 0.0
31/11:00pm 31.0 27.5 5.4 20 13.6 S 13 19 7 10 1006.7 1005.3 0.0
31/10:30pm 32.1 28.1 4.8 18 14.4 S 15 19 8 10 1006.4 1005.0 0.0
31/10:00pm 33.1 28.9 5.6 18 14.9 S 17 19 9 10 1006.0 1004.6 0.0
31/09:30pm 33.9 29.8 6.3 18 15.1 S 17 22 9 12 1005.8 1004.4 0.0
31/09:00pm 34.0 30.7 7.9 20 14.7 SSW 15 19 8 10 1005.5 1004.1 0.0
31/08:30pm 34.3 31.4 8.1 20 14.8 SSW 13 17 7 9 1005.2 1003.8 0.0
31/08:00pm 34.7 31.7 7.7 19 15.2 SSW 13 15 7 8 1004.7 1003.2 0.0
31/07:30pm 36.0 32.9 7.1 17 16.2 SSW 13 17 7 9 1004.3 1002.8 0.0
31/07:00pm 37.7 33.9 7.6 16 17.2 SSW 17 24 9 13 1004.0 1002.5 0.0
31/06:30pm 38.5 34.3 7.3 15 17.7 SSW 19 28 10 15 1003.6 1002.1 0.0
31/06:00pm 38.9 35.1 7.6 15 18.0 SSE 17 20 9 11 1003.3 1001.8 0.0
31/05:30pm 39.8 36.2 8.3 15 18.3 SSE 17 24 9 13 1003.2 1001.7 0.0
31/05:00pm 39.7 37.5 9.2 16 18.0 SW 11 20 6 11 1003.1 1001.6 0.0
31/04:30pm 38.5 36.0 8.2 16 17.4 SW 11 19 6 10 1003.2 1001.7 0.0
31/04:00pm 39.6 36.6 9.1 16 17.9 SSE 15 22 8 12 1003.4 1001.9 0.0
31/03:30pm 39.9 37.9 10.2 17 17.7 SSW 11 19 6 10 1003.6 1002.1 0.0
31/03:00pm 39.7 37.3 10.1 17 17.7 SSW 13 30 7 16 1003.9 1002.4 0.0
31/02:30pm 39.5 38.1 10.8 18 17.2 SSE 9 19 5 10 1004.3 1002.8 0.0
31/02:00pm 38.9 37.6 11.1 19 16.8 SSW 9 15 5 8 1004.7 1003.2 0.0
31/01:30pm 38.3 36.7 11.4 20 16.2 ESE 11 19 6 10 1005.1 1003.7 0.0
31/01:00pm 37.9 36.8 11.8 21 15.8 SSE 9 15 5 8 1005.5 1004.1 0.0
31/12:30pm 37.1 35.8 11.1 21 15.5 S 9 17 5 9 1005.9 1004.5 0.0
31/12:00pm 37.3 36.0 11.3 21 15.6 SSE 9 19 5 10 1006.2 1004.8 0.0
31/11:30am 36.5 34.2 10.6 21 15.3 SE 13 19 7 10 1006.5 1005.1 0.0
31/11:00am 36.0 33.3 10.2 21 15.2 SSE 15 19 8 10 1006.7 1005.3 0.0
31/10:30am 35.4 32.1 9.7 21 14.9 SE 17 28 9 15 1006.9 1005.5 0.0
31/10:00am 34.5 30.7 9.0 21 14.6 SE 19 28 10 15 1007.0 1005.6 0.0
31/09:30am 34.1 30.8 9.4 22 14.2 SSE 17 22 9 12 1007.0 1005.6 0.0
31/09:00am 32.9 29.3 9.7 24 13.4 S 19 24 10 13 1006.9 1005.5 0.0
31/08:30am 31.8 28.0 9.9 26 12.6 SSE 20 26 11 14 1006.7 1005.3 0.0
31/08:00am 30.3 28.2 11.3 31 11.1 S 13 20 7 11 1006.7 1005.3 0.0
31/07:30am 28.9 27.9 12.3 36 9.8 S 9 13 5 7 1006.7 1005.3 0.0
31/07:00am 26.8 26.3 12.1 40 8.6 S 6 7 3 4 1006.5 1005.1 0.0
31/06:30am 26.5 24.7 12.2 41 8.3 S 13 15 7 8 1006.0 1004.6 0.0
31/06:00am 26.7 24.9 13.4 43 7.9 S 15 17 8 9 1005.5 1004.1 0.0
31/05:30am 26.3 25.2 13.1 44 7.8 SSE 11 13 6 7 1005.3 1003.9 0.0
31/05:00am 27.0 25.9 13.0 42 8.3 SSE 11 13 6 7 1005.0 1003.6 0.0
31/04:30am 28.4 27.0 13.5 40 8.9 SSE 13 15 7 8 1005.0 1003.6 0.0
31/04:00am 27.6 27.1 12.0 38 9.1 S 6 7 3 4 1005.0 1003.6 0.0
31/03:30am 27.1 25.9 11.6 38 8.9 S 9 15 5 8 1004.9 1003.5 0.0
31/03:00am 27.8 27.3 12.2 38 9.1 SSE 6 9 3 5 1004.7 1003.2 0.0
31/02:30am 27.5 26.4 11.9 38 9.1 SSE 9 11 5 6 1004.5 1003.0 0.0
31/02:00am 27.0 25.8 10.2 35 9.5 SSE 7 9 4 5 1004.5 1003.0 0.0
31/01:30am 28.9 28.0 10.6 32 10.5 SSE 6 9 3 5 1004.9 1003.5 0.0
31/01:00am 31.3 29.9 12.2 31 11.4 SE 11 15 6 8 1005.1 1003.7 0.0
31/12:30am 29.4 27.4 11.5 33 10.4 SSW 13 15 7 8 1005.2 1003.8 0.0
31/12:00am 29.8 27.9 13.1 36 10.0 SSW 15 19 8 10 1005.5 1004.1 0.0
 
Date/Time
EST
Temp
°C
App
Temp
°C
Dew
Point
Rel
Hum
%
Delta-T
°C
Wind Press
QNH
hPa
Press
MSL
hPa
Rain
since 9 am
mm
Dir
 
Spd
km/h
Gust
km/h
Spd
kts
Gust
kts
30/11:30pm 28.4 27.3 14.3 42 8.5 S 13 15 7 8 1005.6 1004.2 0.0
30/11:00pm 27.8 27.5 13.3 40 8.7 S 7 7 4 4 1005.6 1004.2 0.0
30/10:30pm 29.8 29.6 13.1 36 10.0 S 6 9 3 5 1005.4 1004.0 0.0
30/10:00pm 30.4 30.7 12.3 33 10.7 S 2 6 1 3 1004.9 1003.5 0.0
30/09:30pm 31.4 31.8 13.6 33 10.8 S 4 6 2 3 1004.5 1003.0 0.0
30/09:00pm 31.6 32.1 12.9 32 11.3 S 2 6 1 3 1004.2 1002.7 0.0
30/08:30pm 31.6 30.9 11.4 29 11.9 S 6 7 3 4 1004.0 1002.5 0.0
30/08:00pm 33.5 33.2 10.2 24 13.6 S 2 6 1 3 1003.9 1002.4 0.0
30/07:30pm 34.3 33.1 9.5 22 14.3 S 6 7 3 4 1003.7 1002.2 0.0
30/07:00pm 36.4 35.3 9.8 20 15.6 S 6 7 3 4 1003.4 1001.9 0.0
30/06:30pm 37.8 36.0 9.4 18 16.6 S 9 11 5 6 1003.3 1001.8 0.0
30/06:00pm 37.8 35.0 8.6 17 16.9 S 13 19 7 10 1003.1 1001.6 0.0
30/05:30pm 38.6 35.2 9.2 17 17.2 SW 17 22 9 12 1002.9 1001.4 0.0
30/05:00pm 38.9 35.9 9.4 17 17.4 SW 15 20 8 11 1002.8 1001.3 0.0
30/04:30pm 38.1 35.4 8.8 17 17.0 ENE 13 17 7 9 1002.8 1001.3 0.0
30/04:00pm 38.5 37.2 10.0 18 16.9 SW 7 19 4 10 1003.1 1001.6 0.0
30/03:30pm 38.7 36.5 10.9 19 16.7 SW 13 20 7 11 1003.3 1001.8 0.0
30/03:00pm 38.3 36.0 10.6 19 16.6 SSW 13 20 7 11 1003.7 1002.2 0.0
30/02:30pm 38.2 35.8 11.3 20 16.2 SSW 15 22 8 12 1004.1 1002.6 0.0
30/02:00pm 37.3 36.6 11.3 21 15.6 SW 6 11 3 6 1004.3 1002.8 0.0
30/01:30pm 37.3 35.6 11.3 21 15.6 SSE 11 19 6 10 1004.8 1003.3 0.0
30/01:00pm 37.4 36.0 12.1 22 15.4 ESE 11 22 6 12 1005.3 1003.9 0.0
30/12:30pm 36.9 34.8 12.4 23 14.9 ESE 15 26 8 14 1005.5 1004.1 0.0
30/12:00pm 36.4 34.2 13.2 25 14.3 ESE 17 28 9 15 1006.0 1004.6 0.0
30/11:30am 36.2 35.1 14.2 26 13.7 ESE 13 19 7 10 1006.2 1004.8 0.0
30/11:00am 35.7 34.3 14.4 28 13.3 ESE 15 22 8 12 1006.4 1005.0 0.0
30/10:30am 34.9 32.8 13.7 28 13.0 E 17 26 9 14 1006.4 1005.0 0.0
30/10:00am 34.5 32.5 13.9 29 12.7 SE 17 22 9 12 1006.4 1005.0 0.0
30/09:30am 33.6 31.6 12.6 28 12.6 SE 15 19 8 10 1006.2 1004.8 0.0
30/09:00am 32.8 29.9 12.4 29 12.2 SE 19 24 10 13 1006.2 1004.8 0.0
30/08:30am 32.0 29.8 13.2 31 11.4 SSE 17 24 9 13 1006.2 1004.8 0.0
30/08:00am 30.1 29.1 13.4 36 10.1 S 11 15 6 8 1006.1 1004.7 0.0
30/07:30am 27.6 27.1 13.9 43 8.2 SSE 9 11 5 6 1005.9 1004.5 0.0
30/07:00am 25.4 24.8 13.6 48 7.0 SSE 9 11 5 6 1005.5 1004.1 0.0
30/06:30am 23.7 22.4 12.4 49 6.5 SSE 11 13 6 7 1005.1 1003.7 0.0
30/06:00am 23.9 22.5 12.2 48 6.7 SSE 11 13 6 7 1004.7 1003.2 0.0
30/05:30am 24.0 22.3 11.3 45 7.2 SSE 11 13 6 7 1004.5 1003.0 0.0
30/05:00am 24.3 22.5 10.9 43 7.6 SSE 11 13 6 7 1004.3 1002.8 0.0
30/04:30am 25.3 23.8 11.8 43 7.8 SSE 11 13 6 7 1004.3 1002.8 0.0
30/04:00am 25.6 24.4 11.7 42 8.0 SSE 9 11 5 6 1004.4 1002.9 0.0
30/03:30am 25.3 24.2 10.7 40 8.2 SSE 7 11 4 6 1004.4 1002.9 0.0
30/03:00am 26.5 25.0 11.8 40 8.5 SSE 11 13 6 7 1004.3 1002.8 0.0
30/02:30am 28.1 26.5 12.8 38 9.0 SSE 13 15 7 8 1004.4 1002.9 0.0
30/02:00am 25.7 23.9 12.2 43 7.8 S 13 17 7 9 1004.4 1002.9 0.0
30/01:30am 25.4 23.9 11.9 43 7.8 S 11 13 6 7 1004.6 1003.1 0.0
30/01:00am 26.2 25.1 11.9 41 8.3 S 9 11 5 6 1004.5 1003.0 0.0
30/12:30am 26.6 25.9 11.9 40 8.5 WSW 7 9 4 5 1004.7 1003.2 0.0
30/12:00am 27.1 26.4 12.0 39 8.8 SW 7 9 4 5 1004.9 1003.5 0.0
 
Date/Time
EST
Temp
°C
App
Temp
°C
Dew
Point
Rel
Hum
%
Delta-T
°C
Wind Press
QNH
hPa
Press
MSL
hPa
Rain
since 9 am
mm
Dir
 
Spd
km/h
Gust
km/h
Spd
kts
Gust
kts
29/11:30pm 26.8 25.9 11.3 38 8.9 SW 7 9 4 5 1005.1 1003.7 0.0
29/11:00pm 27.0 25.8 11.5 38 9.0 SW 9 11 5 6 1005.4 1004.0 0.0
29/10:30pm 27.8 26.7 10.1 33 10.0 SW 6 7 3 4 1005.4 1004.0 0.0
29/10:00pm 28.9 27.8 10.1 31 10.7 SW 6 7 3 4 1005.3 1003.9 0.0
29/09:30pm 29.2 27.5 9.8 30 11.0 SSE 9 9 5 5 1005.0 1003.6 0.0
29/09:00pm 29.5 27.6 9.1 28 11.5 SSE 9 9 5 5 1004.7 1003.2 0.0
29/08:30pm 31.2 29.5 8.2 24 12.8 SSE 7 9 4 5 1004.7 1003.2 0.0
29/08:00pm 31.0 29.9 6.8 22 13.2 SSE 2 7 1 4 1004.3 1002.8 0.0
29/07:30pm 33.1 30.9 6.4 19 14.6 SSE 7 7 4 4 1004.0 1002.5 0.0
29/07:00pm 35.3 34.1 6.6 17 16.0 SSE 2 7 1 4 1003.6 1002.1 0.0
29/06:30pm 36.0 33.4 6.2 16 16.5 SSE 9 13 5 7 1003.4 1001.9 0.0
29/06:00pm 36.7 33.5 6.8 16 16.8 SSE 13 22 7 12 1003.2 1001.7 0.0
29/05:30pm 36.8 33.8 7.8 17 16.5 SSE 13 19 7 10 1003.1 1001.6 0.0
29/05:00pm 36.7 33.7 7.7 17 16.5 SSE 13 20 7 11 1003.1 1001.6 0.0
29/04:30pm 36.9 35.5 8.7 18 16.2 SE 6 11 3 6 1003.2 1001.7 0.0
29/04:00pm 36.9 35.1 9.5 19 16.0 S 9 20 5 11 1003.2 1001.7 0.0
29/03:30pm 36.2 34.3 8.9 19 15.7 ESE 9 15 5 8 1003.6 1002.1 0.0
29/03:00pm 36.6 33.4 8.4 18 16.2 ESE 15 22 8 12 1003.8 1002.3 0.0
29/02:30pm 36.4 34.5 9.1 19 15.8 S 9 20 5 11 1004.0 1002.5 0.0
29/02:00pm 35.8 33.6 7.8 18 15.9 SSE 9 15 5 8 1004.2 1002.7 0.0
29/01:30pm 36.1 33.6 8.0 18 16.0 SSW 11 26 6 14 1004.6 1003.1 0.0
29/01:00pm 36.3 32.3 9.0 19 15.8 S 20 28 11 15 1004.9 1003.5 0.0
29/12:30pm 35.7 31.8 9.3 20 15.3 SSE 20 30 11 16 1005.3 1003.9 0.0
29/12:00pm 35.0 32.0 10.8 23 14.3 SE 17 32 9 17 1005.6 1004.2 0.0
29/11:30am 33.9 31.2 10.5 24 13.7 SE 15 20 8 11 1005.8 1004.4 0.0
29/11:00am 32.7 29.2 8.9 23 13.5 S 17 26 9 14 1006.0 1004.6 0.0
29/10:30am 31.2 26.7 7.0 22 13.2 S 20 26 11 14 1006.3 1004.9 0.0

Other Formats:

Comma delimited format used in spreadsheet applications
http://www.bom.gov.au/fwo/IDQ60801/IDQ60801.94335.axf

JavaScript Object Notation format (JSON) in row-major order
http://www.bom.gov.au/fwo/IDQ60801/IDQ60801.94335.json